60PA weather

Pottstown Hospital Heliport
Pottstown, Pennsylvania, United States

Public forecast

Using degrees Fahrenheit for public forecast. Weather courtesy of forecast.io.

METAR (pilot weather report)

Closest report is Heritage Field, 2.5 nm (4.6 km) E. Retrieved 2019/07/20 16:54 UTC (18 minutes ago):

KPTW 201654Z AUTO 28004KT 9SM CLR 32/23 A2990 RMK AO2 SLP119 T03170233

TAF (pilot weather forecast)

Closest forecast is Reading Regional Carl A Spaatz Field, 18.1 nm (33.6 km) WNW. Retrieved 2019/07/20 12:33 UTC (5 hours ago):

TAF KRDG 201130Z 2012/2112 VRB03KT P6SM SCT060 FM201400 26008KT P6SM SCT045 FM210100 VRB03KT P6SM SCT200